createdAt,value
2022-08-07T00:00:24.922Z,11.73
2022-08-07T00:01:43.687Z,11.72
2022-08-07T00:02:39.938Z,11.69
2022-08-07T00:03:25.744Z,11.69
2022-08-07T00:04:24.454Z,11.67
2022-08-07T00:05:24.056Z,11.64
2022-08-07T00:06:29.277Z,11.65
2022-08-07T00:07:24.573Z,11.65
2022-08-07T00:08:23.565Z,11.67
2022-08-07T00:09:34.301Z,11.64
2022-08-07T00:10:27.144Z,11.69
2022-08-07T00:11:29.910Z,11.65
2022-08-07T00:12:24.508Z,11.67
2022-08-07T00:13:25.729Z,11.67
2022-08-07T00:14:25.514Z,11.70
2022-08-07T00:15:24.506Z,11.67
2022-08-07T00:16:28.041Z,11.69
2022-08-07T00:17:23.537Z,11.69
2022-08-07T00:18:24.682Z,11.67
2022-08-07T00:19:26.136Z,11.69
2022-08-07T00:20:29.813Z,11.65
2022-08-07T00:21:56.446Z,11.64
2022-08-07T00:22:35.077Z,11.60
2022-08-07T00:23:24.476Z,11.60
2022-08-07T00:24:23.389Z,11.57
2022-08-07T00:25:23.374Z,11.55
2022-08-07T00:26:48.793Z,11.55
2022-08-07T00:27:24.374Z,11.52
2022-08-07T00:28:23.357Z,11.51
2022-08-07T00:29:24.351Z,11.47
2022-08-07T00:30:27.745Z,11.44
2022-08-07T00:31:23.362Z,11.43
2022-08-07T00:32:28.350Z,11.42
2022-08-07T00:33:24.286Z,11.39
2022-08-07T00:34:23.289Z,11.39
2022-08-07T00:35:23.279Z,11.36
2022-08-07T00:36:23.302Z,11.32
2022-08-07T00:37:23.232Z,11.33
2022-08-07T00:38:31.641Z,11.29
2022-08-07T00:39:24.258Z,11.28
2022-08-07T00:40:36.265Z,11.27
2022-08-07T00:41:24.164Z,11.24
2022-08-07T00:42:29.034Z,11.25
2022-08-07T00:44:01.888Z,11.22
2022-08-07T00:44:24.224Z,11.22
2022-08-07T00:45:23.157Z,11.24
2022-08-07T00:46:23.177Z,11.22
2022-08-07T00:48:08.846Z,11.18
2022-08-07T00:48:31.054Z,11.18
2022-08-07T00:49:24.993Z,11.15
2022-08-07T00:50:46.286Z,11.17
2022-08-07T00:51:24.060Z,11.14
2022-08-07T00:52:24.051Z,11.11
2022-08-07T00:53:23.126Z,11.11
2022-08-07T00:54:23.367Z,11.14
2022-08-07T00:55:25.609Z,11.11
2022-08-07T00:56:30.251Z,11.10
2022-08-07T00:57:25.806Z,11.10
2022-08-07T00:58:23.051Z,11.09
2022-08-07T00:59:35.438Z,11.07
2022-08-07T01:01:44.379Z,11.11
2022-08-07T01:02:40.151Z,11.10
2022-08-07T01:03:55.675Z,11.06
2022-08-07T01:04:43.485Z,11.06
2022-08-07T01:05:39.057Z,11.03
2022-08-07T01:06:39.087Z,11.04
2022-08-07T01:07:39.104Z,11.03
2022-08-07T01:08:39.034Z,11.03
2022-08-07T01:10:04.474Z,11.03
2022-08-07T01:10:40.025Z,11.04
2022-08-07T01:12:09.098Z,11.06
2022-08-07T01:12:40.027Z,11.07
2022-08-07T01:13:39.994Z,11.09
2022-08-07T01:14:39.999Z,11.10
2022-08-07T01:16:01.141Z,11.10
2022-08-07T01:16:42.960Z,11.07
2022-08-07T01:17:39.964Z,11.04
2022-08-07T01:18:38.950Z,11.02
2022-08-07T01:19:39.917Z,10.97
2022-08-07T01:20:42.947Z,10.94
2022-08-07T01:21:38.919Z,10.91
2022-08-07T01:22:46.791Z,10.89
2022-08-07T01:23:41.732Z,10.84
2022-08-07T01:24:39.926Z,10.84
2022-08-07T01:25:53.564Z,10.82
2022-08-07T01:26:39.843Z,10.81
2022-08-07T01:27:41.061Z,10.79
2022-08-07T01:28:39.814Z,10.79
2022-08-07T01:29:38.777Z,10.78
2022-08-07T01:30:38.809Z,10.78
2022-08-07T01:31:42.349Z,10.76
2022-08-07T01:32:39.794Z,10.74
2022-08-07T01:33:55.779Z,10.74
2022-08-07T01:34:39.771Z,10.71
2022-08-07T01:35:53.281Z,10.68
2022-08-07T01:36:40.632Z,10.68
2022-08-07T01:37:38.763Z,10.68
2022-08-07T01:38:38.713Z,10.66
2022-08-07T01:39:40.387Z,10.66
2022-08-07T01:40:39.791Z,10.66
2022-08-07T01:41:38.718Z,10.61
2022-08-07T01:42:58.485Z,10.61
2022-08-07T01:43:39.666Z,10.61
2022-08-07T01:44:38.649Z,10.59
2022-08-07T01:45:40.141Z,10.59
2022-08-07T01:46:38.647Z,10.56
2022-08-07T01:48:19.231Z,10.53
2022-08-07T01:48:40.988Z,10.52
2022-08-07T01:49:38.614Z,10.55
2022-08-07T01:50:42.863Z,10.55
2022-08-07T01:52:02.706Z,10.55
2022-08-07T01:52:39.567Z,10.55
2022-08-07T01:54:12.266Z,10.52
2022-08-07T01:54:39.555Z,10.51
2022-08-07T01:55:38.758Z,10.52
2022-08-07T01:56:38.730Z,10.48
2022-08-07T01:58:01.643Z,10.45
2022-08-07T01:58:40.957Z,10.44
2022-08-07T01:59:40.058Z,10.44
2022-08-07T02:00:38.782Z,10.42
2022-08-07T02:02:02.028Z,10.40
2022-08-07T02:03:19.035Z,10.36
2022-08-07T02:03:48.660Z,10.36
2022-08-07T02:04:39.470Z,10.36
2022-08-07T02:05:43.393Z,10.38
2022-08-07T02:06:39.406Z,10.40
2022-08-07T02:07:50.230Z,10.41
2022-08-07T02:08:39.379Z,10.41
2022-08-07T02:09:52.974Z,10.41
2022-08-07T02:10:42.109Z,10.40
2022-08-07T02:12:04.584Z,10.34
2022-08-07T02:12:39.384Z,10.33
2022-08-07T02:13:57.247Z,10.30
2022-08-07T02:14:41.187Z,10.29
2022-08-07T02:15:38.304Z,10.26
2022-08-07T02:16:38.295Z,10.23
2022-08-07T02:17:38.272Z,10.25
2022-08-07T02:18:38.319Z,10.23
2022-08-07T02:20:07.540Z,10.25
2022-08-07T02:20:39.272Z,10.25
2022-08-07T02:21:56.509Z,10.27
2022-08-07T02:22:41.170Z,10.26
2022-08-07T02:23:38.289Z,10.25
2022-08-07T02:24:38.229Z,10.23
2022-08-07T02:26:10.405Z,10.20
2022-08-07T02:26:39.182Z,10.20
2022-08-07T02:27:41.196Z,10.17
2022-08-07T02:28:38.188Z,10.15
2022-08-07T02:29:43.621Z,10.12
2022-08-07T02:30:39.149Z,10.08
2022-08-07T02:31:38.157Z,10.05
2022-08-07T02:32:39.378Z,10.02
2022-08-07T02:34:01.571Z,10.02
2022-08-07T02:34:39.140Z,9.97
2022-08-07T02:36:28.599Z,10.02
2022-08-07T02:36:39.089Z,10.02
2022-08-07T02:37:38.098Z,10.08
2022-08-07T02:38:39.068Z,10.11
2022-08-07T02:39:43.068Z,10.14
2022-08-07T02:40:39.143Z,10.14
2022-08-07T02:41:38.124Z,10.14
2022-08-07T02:42:38.055Z,10.09
2022-08-07T02:44:37.845Z,10.05
2022-08-07T02:46:01.487Z,10.04
2022-08-07T02:46:46.803Z,10.05
2022-08-07T02:47:48.837Z,10.02
2022-08-07T02:48:38.762Z,9.99
2022-08-07T02:49:55.935Z,9.94
2022-08-07T02:50:38.764Z,9.94
2022-08-07T02:51:42.634Z,9.91
2022-08-07T02:52:38.730Z,9.89
2022-08-07T02:53:38.619Z,9.89
2022-08-07T02:54:37.726Z,9.87
2022-08-07T02:56:03.682Z,9.84
2022-08-07T02:56:38.923Z,9.84
2022-08-07T02:57:37.684Z,9.83
2022-08-07T02:58:37.696Z,9.83
2022-08-07T02:59:37.670Z,9.81
2022-08-07T03:00:39.280Z,9.79
2022-08-07T03:01:40.193Z,9.76
2022-08-07T03:02:37.661Z,9.76
2022-08-07T03:03:49.540Z,9.76
2022-08-07T03:04:38.605Z,9.75
2022-08-07T03:05:37.919Z,9.74
2022-08-07T03:06:37.573Z,9.72
2022-08-07T03:07:58.896Z,9.71
2022-08-07T03:08:38.564Z,9.72
2022-08-07T03:09:43.455Z,9.72
2022-08-07T03:10:46.197Z,9.72
2022-08-07T03:11:51.718Z,9.71
2022-08-07T03:12:38.535Z,9.69
2022-08-07T03:13:38.877Z,9.68
2022-08-07T03:14:38.506Z,9.68
2022-08-07T03:15:47.786Z,9.66
2022-08-07T03:16:38.576Z,9.65
2022-08-07T03:17:53.380Z,9.66
2022-08-07T03:18:38.445Z,9.64
2022-08-07T03:19:37.591Z,9.65
2022-08-07T03:20:37.455Z,9.64
2022-08-07T03:21:37.425Z,9.65
2022-08-07T03:22:37.402Z,9.61
2022-08-07T03:24:18.289Z,9.60
2022-08-07T03:24:38.372Z,9.58
2022-08-07T03:25:40.476Z,9.58
2022-08-07T03:26:51.036Z,9.58
2022-08-07T03:27:59.091Z,9.56
2022-08-07T03:28:39.586Z,9.54
2022-08-07T03:29:37.535Z,9.57
2022-08-07T03:30:37.322Z,9.56
2022-08-07T03:31:43.308Z,9.56
2022-08-07T03:32:38.723Z,9.54
2022-08-07T03:33:40.098Z,9.54
2022-08-07T03:34:39.193Z,9.53
2022-08-07T03:35:43.584Z,9.51
2022-08-07T03:36:38.261Z,9.47
2022-08-07T03:37:46.227Z,9.46
2022-08-07T03:38:38.233Z,9.46
2022-08-07T03:39:59.402Z,9.43
2022-08-07T03:40:38.222Z,9.42
2022-08-07T03:41:42.592Z,9.40
2022-08-07T03:42:38.198Z,9.39
2022-08-07T03:43:37.180Z,9.38
2022-08-07T03:44:37.175Z,9.38
2022-08-07T03:45:39.674Z,9.35
2022-08-07T03:46:38.156Z,9.33
2022-08-07T03:47:48.123Z,9.33
2022-08-07T03:48:45.393Z,9.33
2022-08-07T03:49:38.125Z,9.35
2022-08-07T03:50:37.119Z,9.36
2022-08-07T03:51:47.518Z,9.33
2022-08-07T03:52:38.053Z,9.33
2022-08-07T03:54:32.767Z,9.33
2022-08-07T03:54:54.150Z,9.32
2022-08-07T03:55:57.657Z,9.31
2022-08-07T03:56:38.023Z,9.28
2022-08-07T03:58:35.152Z,9.28
2022-08-07T03:59:08.425Z,9.23
2022-08-07T03:59:46.835Z,9.21
2022-08-07T04:00:38.097Z,9.20
2022-08-07T04:01:38.025Z,9.21
2022-08-07T04:02:41.170Z,9.21
2022-08-07T04:03:49.486Z,9.21
2022-08-07T04:04:37.962Z,9.23
2022-08-07T04:05:40.375Z,9.23
2022-08-07T04:06:38.862Z,9.21
2022-08-07T04:07:42.621Z,9.24
2022-08-07T04:08:37.895Z,9.24
2022-08-07T04:09:45.051Z,9.26
2022-08-07T04:10:38.802Z,9.24
2022-08-07T04:12:27.115Z,9.24
2022-08-07T04:12:37.871Z,9.24
2022-08-07T04:14:10.607Z,9.23
2022-08-07T04:14:45.839Z,9.21
2022-08-07T04:15:37.854Z,9.23
2022-08-07T04:16:36.827Z,9.20
2022-08-07T04:18:56.509Z,9.21
2022-08-07T04:18:59.754Z,9.18
2022-08-07T04:19:52.897Z,9.20
2022-08-07T04:20:37.787Z,9.21
2022-08-07T04:21:37.797Z,9.23
2022-08-07T04:22:36.749Z,9.24
2022-08-07T04:23:43.972Z,9.24
2022-08-07T04:24:39.158Z,9.23
2022-08-07T04:25:40.824Z,9.26
2022-08-07T04:26:36.702Z,9.31
2022-08-07T04:27:44.341Z,9.33
2022-08-07T04:28:37.688Z,9.33
2022-08-07T04:29:48.711Z,9.36
2022-08-07T04:30:43.787Z,9.38
2022-08-07T04:31:38.777Z,9.39
2022-08-07T04:32:37.644Z,9.39
2022-08-07T04:33:36.672Z,9.40
2022-08-07T04:34:36.662Z,9.47
2022-08-07T04:35:36.613Z,9.47
2022-08-07T04:36:36.589Z,9.50
2022-08-07T04:38:00.795Z,9.53
2022-08-07T04:38:37.584Z,9.53
2022-08-07T04:39:36.661Z,9.56
2022-08-07T04:40:36.543Z,9.57
2022-08-07T04:41:37.557Z,9.57
2022-08-07T04:42:36.555Z,9.58
2022-08-07T04:44:11.742Z,9.58
2022-08-07T04:44:37.531Z,9.60
2022-08-07T04:45:52.096Z,9.60
2022-08-07T04:46:51.327Z,9.65
2022-08-07T04:48:01.133Z,9.66
2022-08-07T04:48:37.456Z,9.69
2022-08-07T04:49:37.789Z,9.71
2022-08-07T04:50:36.445Z,9.74
2022-08-07T04:51:36.437Z,9.76
2022-08-07T04:52:36.431Z,9.78
2022-08-07T04:54:01.064Z,9.79
2022-08-07T04:54:37.423Z,9.79
2022-08-07T04:58:10.521Z,9.86
2022-08-07T04:58:13.158Z,9.81
2022-08-07T04:58:15.329Z,9.91
2022-08-07T04:59:09.080Z,9.94
2022-08-07T05:00:11.763Z,9.97
2022-08-07T05:00:37.438Z,10.02
2022-08-07T05:01:36.363Z,10.09
2022-08-07T05:02:36.327Z,10.15
2022-08-07T05:03:59.653Z,10.26
2022-08-07T05:04:37.283Z,10.29
2022-08-07T05:05:54.473Z,10.33
2022-08-07T05:06:43.581Z,10.40
2022-08-07T05:07:48.309Z,10.40
2022-08-07T05:08:59.349Z,10.41
2022-08-07T05:09:45.692Z,10.42
2022-08-07T05:10:37.219Z,10.47
2022-08-07T05:11:58.192Z,10.48
2022-08-07T05:12:37.201Z,10.52
2022-08-07T05:14:52.166Z,10.52
2022-08-07T05:14:52.666Z,10.53
2022-08-07T05:15:37.174Z,10.59
2022-08-07T05:16:36.188Z,10.61
2022-08-07T05:17:51.873Z,10.66
2022-08-07T05:18:37.123Z,10.68
2022-08-07T05:19:44.933Z,10.74
2022-08-07T05:20:37.179Z,10.78
2022-08-07T05:22:00.303Z,10.82
2022-08-07T05:22:37.117Z,10.85
2022-08-07T05:23:36.126Z,10.89
2022-08-07T05:24:39.423Z,10.96
2022-08-07T05:26:11.186Z,11.02
2022-08-07T05:26:37.072Z,11.06
2022-08-07T05:28:02.452Z,11.10
2022-08-07T05:28:37.029Z,11.15
2022-08-07T05:29:39.105Z,11.21
2022-08-07T05:30:37.026Z,11.24
2022-08-07T05:31:37.767Z,11.29
2022-08-07T05:32:35.985Z,11.35
2022-08-07T05:33:37.035Z,11.35
2022-08-07T05:34:35.968Z,11.37
2022-08-07T05:35:41.630Z,11.40
2022-08-07T05:36:39.190Z,11.43
2022-08-07T05:37:40.891Z,11.46
2022-08-07T05:39:01.498Z,11.54
2022-08-07T05:40:06.492Z,11.55
2022-08-07T05:40:36.951Z,11.60
2022-08-07T05:42:01.496Z,11.65
2022-08-07T05:42:39.171Z,11.67
2022-08-07T05:43:49.840Z,11.73
2022-08-07T05:44:36.841Z,11.76
2022-08-07T05:45:47.807Z,11.79
2022-08-07T05:46:36.853Z,11.85
2022-08-07T05:47:38.226Z,11.88
2022-08-07T05:48:36.831Z,11.94
2022-08-07T05:49:40.944Z,11.98
2022-08-07T05:50:35.806Z,12.01
2022-08-07T05:51:39.945Z,12.09
2022-08-07T05:52:36.786Z,12.12
2022-08-07T05:54:11.925Z,12.14
2022-08-07T05:54:53.738Z,12.21
2022-08-07T05:56:03.495Z,12.23
2022-08-07T05:56:36.724Z,12.24
2022-08-07T05:57:38.154Z,12.32
2022-08-07T05:58:37.489Z,12.37
2022-08-07T05:59:39.075Z,12.41
2022-08-07T06:00:36.689Z,12.47
2022-08-07T06:01:36.157Z,12.52
2022-08-07T06:02:35.653Z,12.54
2022-08-07T06:03:56.813Z,12.57
2022-08-07T06:04:36.649Z,12.65
2022-08-07T06:05:35.641Z,12.72
2022-08-07T06:06:35.629Z,12.77
2022-08-07T06:08:14.612Z,12.79
2022-08-07T06:08:42.067Z,12.86
2022-08-07T06:09:45.289Z,12.93
2022-08-07T06:10:36.603Z,12.97
2022-08-07T06:11:35.585Z,13.01
2022-08-07T06:12:35.549Z,13.07
2022-08-07T06:14:11.921Z,13.14
2022-08-07T06:14:36.556Z,13.19
2022-08-07T06:15:39.400Z,13.25
2022-08-07T06:16:36.508Z,13.29
2022-08-07T06:17:37.407Z,13.33
2022-08-07T06:18:35.490Z,13.36
2022-08-07T06:19:47.887Z,13.42
2022-08-07T06:20:49.610Z,13.48
2022-08-07T06:22:15.984Z,13.51
2022-08-07T06:22:40.063Z,13.59
2022-08-07T06:24:36.844Z,13.62
2022-08-07T06:24:45.762Z,13.66
2022-08-07T06:25:36.402Z,13.70
2022-08-07T06:26:35.396Z,13.78
2022-08-07T06:27:44.427Z,13.81
2022-08-07T06:28:36.396Z,13.88
2022-08-07T06:29:38.749Z,13.95
2022-08-07T06:30:38.036Z,13.97
2022-08-07T06:31:47.345Z,14.02
2022-08-07T06:32:36.350Z,14.03
2022-08-07T06:33:35.322Z,14.07
2022-08-07T06:34:35.318Z,14.14
2022-08-07T06:35:45.702Z,14.18
2022-08-07T06:36:36.311Z,14.27
2022-08-07T06:37:44.106Z,14.36
2022-08-07T06:38:36.278Z,14.42
2022-08-07T06:40:15.756Z,14.47
2022-08-07T06:40:36.393Z,14.54
2022-08-07T06:42:01.116Z,14.60
2022-08-07T06:42:36.231Z,14.64
2022-08-07T06:43:39.556Z,14.68
2022-08-07T06:44:36.686Z,14.73
2022-08-07T06:45:35.687Z,14.80
2022-08-07T06:46:35.615Z,14.86
2022-08-07T06:47:38.719Z,14.94
2022-08-07T06:48:36.148Z,15.01
2022-08-07T06:49:35.125Z,15.09
2022-08-07T06:50:36.171Z,15.14
2022-08-07T06:51:35.127Z,15.21
2022-08-07T06:52:36.457Z,15.29
2022-08-07T06:55:29.877Z,15.35
2022-08-07T06:55:33.714Z,15.44
2022-08-07T06:55:47.860Z,15.49
2022-08-07T06:56:36.065Z,15.56
2022-08-07T06:57:43.549Z,15.56
2022-08-07T06:58:36.073Z,15.64
2022-08-07T07:00:12.031Z,15.69
2022-08-07T07:00:36.061Z,15.75
2022-08-07T07:01:44.155Z,15.76
2022-08-07T07:02:54.491Z,15.83
2022-08-07T07:03:48.852Z,15.87
2022-08-07T07:04:36.001Z,15.96
2022-08-07T07:06:03.579Z,16.04
2022-08-07T07:06:57.274Z,16.07
2022-08-07T07:07:59.756Z,16.12
2022-08-07T07:08:35.936Z,16.21
2022-08-07T07:09:36.225Z,16.27
2022-08-07T07:10:34.943Z,16.31
2022-08-07T07:12:08.518Z,16.35
2022-08-07T07:12:35.913Z,16.42
2022-08-07T07:13:56.672Z,16.46
2022-08-07T07:14:36.436Z,16.52
2022-08-07T07:15:35.969Z,16.57
2022-08-07T07:16:45.330Z,16.60
2022-08-07T07:17:39.090Z,16.67
2022-08-07T07:18:48.305Z,16.71
2022-08-07T07:19:55.286Z,16.78
2022-08-07T07:20:35.905Z,16.82
2022-08-07T07:22:04.309Z,16.85
2022-08-07T07:24:06.330Z,16.89
2022-08-07T07:24:08.018Z,16.93
2022-08-07T07:24:35.743Z,16.96
2022-08-07T07:26:31.358Z,17.00
2022-08-07T07:26:37.198Z,17.04
2022-08-07T07:27:35.719Z,17.11
2022-08-07T07:29:23.517Z,17.16
2022-08-07T07:29:56.456Z,17.23
2022-08-07T07:30:38.470Z,17.31
2022-08-07T07:31:39.753Z,17.37
2022-08-07T07:32:35.670Z,17.40
2022-08-07T07:33:34.684Z,17.46
2022-08-07T07:34:34.676Z,17.58
2022-08-07T07:35:44.850Z,17.68
2022-08-07T07:36:36.326Z,17.74
2022-08-07T07:37:47.269Z,17.79
2022-08-07T07:38:36.053Z,17.89
2022-08-07T07:39:45.708Z,17.92
2022-08-07T07:40:35.629Z,17.95
2022-08-07T07:41:50.860Z,17.96
2022-08-07T07:42:35.606Z,18.03
2022-08-07T07:44:13.693Z,18.10
2022-08-07T07:44:35.558Z,18.15
2022-08-07T07:46:38.102Z,18.21
2022-08-07T07:46:55.152Z,18.27
2022-08-07T07:47:42.710Z,18.33
2022-08-07T07:48:36.114Z,18.41
2022-08-07T07:50:34.753Z,18.50
2022-08-07T07:50:38.790Z,18.58
2022-08-07T07:51:58.304Z,18.62
2022-08-07T07:52:35.429Z,18.63
2022-08-07T07:53:34.937Z,18.63
2022-08-07T07:54:34.431Z,18.65
2022-08-07T07:55:37.694Z,18.67
2022-08-07T07:56:35.431Z,18.76
2022-08-07T07:57:52.606Z,18.84
2022-08-07T07:58:37.079Z,18.92
2022-08-07T07:59:52.813Z,19.02
2022-08-07T08:00:35.412Z,19.08
2022-08-07T08:02:02.379Z,19.14
2022-08-07T08:02:35.863Z,19.23
2022-08-07T08:04:06.258Z,19.28
2022-08-07T08:04:35.977Z,19.39
2022-08-07T08:05:51.063Z,19.46
2022-08-07T08:06:35.292Z,19.55
2022-08-07T08:07:35.739Z,19.61
2022-08-07T08:08:37.054Z,19.65
2022-08-07T08:09:51.842Z,19.68
2022-08-07T08:10:37.680Z,19.74
2022-08-07T08:11:59.184Z,19.81
2022-08-07T08:12:52.725Z,19.80
2022-08-07T08:13:50.776Z,19.84
2022-08-07T08:14:36.157Z,19.87
2022-08-07T08:15:57.920Z,19.91
2022-08-07T08:16:35.489Z,19.96
2022-08-07T08:17:58.169Z,20.03
2022-08-07T08:18:35.181Z,20.08
2022-08-07T08:20:17.446Z,20.16
2022-08-07T08:20:35.138Z,20.18
2022-08-07T08:21:55.499Z,20.17
2022-08-07T08:22:35.152Z,20.20
2022-08-07T08:23:34.794Z,20.26
2022-08-07T08:24:36.137Z,20.31
2022-08-07T08:25:42.866Z,20.38
2022-08-07T08:26:35.100Z,20.42
2022-08-07T08:27:34.178Z,20.47
2022-08-07T08:28:38.774Z,20.47
2022-08-07T08:29:35.048Z,20.47
2022-08-07T08:30:37.472Z,20.42
2022-08-07T08:31:58.742Z,20.39
2022-08-07T08:32:38.533Z,20.42
2022-08-07T08:33:34.024Z,20.47
2022-08-07T08:34:34.020Z,20.51
2022-08-07T08:35:39.361Z,20.51
2022-08-07T08:36:34.996Z,20.51
2022-08-07T08:38:01.604Z,20.57
2022-08-07T08:38:38.582Z,20.59
2022-08-07T08:39:39.514Z,20.69
2022-08-07T08:40:34.960Z,20.73
2022-08-07T08:41:58.153Z,20.80
2022-08-07T08:42:34.907Z,20.89
2022-08-07T08:43:42.974Z,20.98
2022-08-07T08:45:59.428Z,20.95
2022-08-07T08:46:46.042Z,20.99
2022-08-07T08:47:52.318Z,21.04
2022-08-07T08:48:45.961Z,21.01
2022-08-07T08:49:46.469Z,20.92
2022-08-07T08:50:46.263Z,20.91
2022-08-07T08:51:49.450Z,20.89
2022-08-07T08:52:53.743Z,20.84
2022-08-07T08:53:46.010Z,20.82
2022-08-07T08:54:44.911Z,20.84
2022-08-07T08:55:54.730Z,20.89
2022-08-07T08:56:47.308Z,20.94
2022-08-07T08:57:45.217Z,21.01
2022-08-07T08:58:44.867Z,21.10
2022-08-07T08:59:47.893Z,21.19
2022-08-07T09:00:48.464Z,21.22
2022-08-07T09:01:49.216Z,21.27
2022-08-07T09:02:49.372Z,21.32
2022-08-07T09:03:47.566Z,21.43
2022-08-07T09:04:44.958Z,21.54
2022-08-07T09:05:44.985Z,21.50
2022-08-07T09:06:47.936Z,21.49
2022-08-07T09:07:57.984Z,21.43
2022-08-07T09:08:46.880Z,21.44
2022-08-07T09:09:47.448Z,21.50
2022-08-07T09:10:45.171Z,21.56
2022-08-07T09:11:54.142Z,21.62
2022-08-07T09:12:53.704Z,21.68
2022-08-07T09:13:45.675Z,21.72
2022-08-07T09:14:50.714Z,21.64
2022-08-07T09:16:21.841Z,21.59
2022-08-07T09:16:45.709Z,21.64
2022-08-07T09:17:59.337Z,21.65
2022-08-07T09:18:47.380Z,21.67
2022-08-07T09:19:53.644Z,21.64
2022-08-07T09:20:58.013Z,21.69
2022-08-07T09:22:22.439Z,21.80
2022-08-07T09:24:30.451Z,21.98
2022-08-07T09:24:31.603Z,21.88
2022-08-07T09:24:58.458Z,21.98
2022-08-07T09:25:53.476Z,21.96
2022-08-07T09:26:47.925Z,21.88
2022-08-07T09:27:59.530Z,21.92
2022-08-07T09:30:05.753Z,22.02
2022-08-07T09:30:06.615Z,22.15
2022-08-07T09:30:46.405Z,22.30
2022-08-07T09:31:49.273Z,22.37
2022-08-07T09:32:44.846Z,22.27
2022-08-07T09:33:56.896Z,22.17
2022-08-07T09:34:45.574Z,22.05
2022-08-07T09:36:04.588Z,22.02
2022-08-07T09:36:46.903Z,22.07
2022-08-07T09:37:48.210Z,22.17
2022-08-07T09:38:50.279Z,22.15
2022-08-07T09:39:54.597Z,22.20
2022-08-07T09:40:45.424Z,22.22
2022-08-07T09:41:58.699Z,22.18
2022-08-07T09:42:45.680Z,22.15
2022-08-07T09:44:05.933Z,22.17
2022-08-07T09:45:03.581Z,22.24
2022-08-07T09:47:51.888Z,22.47
2022-08-07T09:47:52.481Z,22.36
2022-08-07T09:47:59.018Z,22.49
2022-08-07T09:48:56.202Z,22.46
2022-08-07T09:50:04.070Z,22.45
2022-08-07T09:50:45.567Z,22.51
2022-08-07T09:52:15.425Z,22.54
2022-08-07T09:52:51.550Z,22.54
2022-08-07T09:53:49.942Z,22.64
2022-08-07T09:54:45.316Z,22.75
2022-08-07T09:56:03.443Z,22.76
2022-08-07T09:56:46.383Z,22.85
2022-08-07T09:57:46.367Z,22.94
2022-08-07T09:58:48.808Z,23.12
2022-08-07T10:00:00.374Z,23.32
2022-08-07T10:00:45.204Z,23.53
2022-08-07T10:01:51.355Z,23.75
2022-08-07T10:02:55.838Z,23.90
2022-08-07T10:04:05.432Z,23.80
2022-08-07T10:04:47.635Z,23.83
2022-08-07T10:06:00.078Z,23.61
2022-08-07T10:06:49.159Z,23.85
2022-08-07T10:07:53.726Z,24.28
2022-08-07T10:08:45.208Z,24.65
2022-08-07T10:09:59.100Z,25.15
2022-08-07T10:11:59.847Z,25.61
2022-08-07T10:12:03.365Z,25.88
2022-08-07T10:12:52.639Z,26.29
2022-08-07T10:14:01.226Z,26.52
2022-08-07T10:14:54.323Z,26.15
2022-08-07T10:15:45.094Z,26.39
2022-08-07T10:16:44.551Z,26.39
2022-08-07T10:18:02.690Z,26.75
2022-08-07T10:18:44.992Z,26.23
2022-08-07T10:19:43.980Z,25.92
2022-08-07T10:20:44.432Z,25.97
2022-08-07T10:22:14.198Z,26.36
2022-08-07T10:22:45.359Z,26.67
2022-08-07T10:24:06.620Z,26.73
2022-08-07T10:24:45.059Z,26.48
2022-08-07T10:25:43.912Z,26.30
2022-08-07T10:26:44.229Z,26.07
2022-08-07T10:27:45.833Z,25.98
2022-08-07T10:28:49.512Z,26.39
2022-08-07T10:29:45.962Z,26.62
2022-08-07T10:30:45.112Z,27.02
2022-08-07T10:31:45.166Z,27.49
2022-08-07T10:32:52.677Z,27.65
2022-08-07T10:34:14.196Z,26.94
2022-08-07T10:34:45.278Z,26.26
2022-08-07T10:35:55.939Z,25.90
2022-08-07T10:36:45.556Z,25.52
2022-08-07T10:38:00.948Z,25.57
2022-08-07T10:38:48.785Z,25.65
2022-08-07T10:40:03.350Z,25.77
2022-08-07T10:40:44.757Z,25.88
2022-08-07T10:41:52.167Z,25.62
2022-08-07T10:42:44.743Z,25.46
2022-08-07T10:43:43.797Z,25.51
2022-08-07T10:44:45.143Z,25.50
2022-08-07T10:45:58.058Z,25.61
2022-08-07T10:46:45.232Z,25.46
2022-08-07T10:47:53.569Z,25.21
2022-08-07T10:48:44.851Z,24.91
2022-08-07T10:49:49.747Z,24.81
2022-08-07T10:50:50.217Z,24.78
2022-08-07T10:52:02.005Z,24.43
2022-08-07T10:52:48.621Z,24.09
2022-08-07T10:53:45.059Z,23.79
2022-08-07T10:54:53.134Z,23.66
2022-08-07T10:55:45.109Z,23.70
2022-08-07T10:56:43.642Z,23.66
2022-08-07T10:57:43.813Z,23.68
2022-08-07T10:58:45.956Z,23.66
2022-08-07T10:59:47.240Z,23.61
2022-08-07T11:00:56.125Z,23.65
2022-08-07T11:01:51.447Z,23.57
2022-08-07T11:02:49.113Z,23.42
2022-08-07T11:03:54.845Z,23.36
2022-08-07T11:04:45.595Z,23.38
2022-08-07T11:05:49.093Z,23.36
2022-08-07T11:06:44.661Z,23.51
2022-08-07T11:07:59.007Z,23.69
2022-08-07T11:08:44.734Z,23.79
2022-08-07T11:10:07.909Z,23.83
2022-08-07T11:10:47.665Z,23.50
2022-08-07T11:11:44.515Z,23.38
2022-08-07T11:12:44.451Z,23.28
2022-08-07T11:14:43.662Z,23.23
2022-08-07T11:14:59.864Z,23.33
2022-08-07T11:15:44.430Z,23.47
2022-08-07T11:16:49.366Z,23.65
2022-08-07T11:17:45.725Z,23.80
2022-08-07T11:18:43.486Z,23.90
2022-08-07T11:19:43.507Z,24.03
2022-08-07T11:20:43.353Z,24.31
2022-08-07T11:21:43.354Z,24.67
2022-08-07T11:22:46.188Z,24.98
2022-08-07T11:23:43.572Z,25.21
2022-08-07T11:24:45.497Z,25.36
2022-08-07T11:25:49.798Z,25.57
2022-08-07T11:26:49.945Z,25.88
2022-08-07T11:28:02.841Z,26.21
2022-08-07T11:28:44.364Z,26.45
2022-08-07T11:29:48.270Z,26.67
2022-08-07T11:30:44.366Z,26.92
2022-08-07T11:31:45.076Z,27.13
2022-08-07T11:32:43.252Z,27.17
2022-08-07T11:33:53.541Z,27.17
2022-08-07T11:34:44.328Z,27.10
2022-08-07T11:35:59.864Z,27.04
2022-08-07T11:36:44.221Z,26.87
2022-08-07T11:37:58.030Z,26.70
2022-08-07T11:38:50.571Z,26.76
2022-08-07T11:39:59.843Z,26.82
2022-08-07T11:40:49.656Z,26.89
2022-08-07T11:42:01.631Z,26.91
2022-08-07T11:42:44.131Z,27.06
2022-08-07T11:44:11.083Z,27.10
2022-08-07T11:44:52.304Z,27.17
2022-08-07T11:45:53.177Z,27.00
2022-08-07T11:46:44.123Z,27.04
2022-08-07T11:47:56.261Z,27.18
2022-08-07T11:49:04.149Z,27.19
2022-08-07T11:50:11.223Z,27.22
2022-08-07T11:50:44.585Z,27.22
2022-08-07T11:51:46.628Z,27.31
2022-08-07T11:52:43.375Z,27.40
2022-08-07T11:54:01.787Z,27.29
2022-08-07T11:54:46.305Z,27.19
2022-08-07T11:56:14.032Z,27.13
2022-08-07T11:56:44.022Z,27.12
2022-08-07T11:57:59.915Z,27.32
2022-08-07T11:58:44.069Z,27.47
2022-08-07T12:00:10.682Z,27.17
2022-08-07T12:00:53.665Z,27.04
2022-08-07T12:01:59.818Z,26.69
2022-08-07T12:02:52.072Z,26.18
2022-08-07T12:03:45.169Z,25.88
2022-08-07T12:04:43.149Z,25.85
2022-08-07T12:05:49.294Z,25.73
2022-08-07T12:06:51.648Z,25.73
2022-08-07T12:07:44.261Z,25.60
2022-08-07T12:08:44.061Z,25.33
2022-08-07T12:09:43.324Z,25.18
2022-08-07T12:10:43.161Z,25.06
2022-08-07T12:11:43.469Z,25.20
2022-08-07T12:12:43.917Z,25.45
2022-08-07T12:13:47.827Z,25.61
2022-08-07T12:14:43.966Z,25.85
2022-08-07T12:15:58.054Z,26.39
2022-08-07T12:16:43.825Z,26.92
2022-08-07T12:17:58.491Z,27.46
2022-08-07T12:18:45.179Z,27.75
2022-08-07T12:19:56.472Z,28.04
2022-08-07T12:20:43.835Z,28.30
2022-08-07T12:21:55.561Z,28.58
2022-08-07T12:22:58.256Z,28.83
2022-08-07T12:24:07.523Z,29.11
2022-08-07T12:24:43.726Z,28.95
2022-08-07T12:26:05.431Z,28.68
2022-08-07T12:26:46.591Z,28.54
2022-08-07T12:28:09.688Z,28.06
2022-08-07T12:28:44.920Z,27.28
2022-08-07T12:29:42.770Z,26.69
2022-08-07T12:30:47.009Z,26.29
2022-08-07T12:32:02.018Z,25.98
2022-08-07T12:32:43.790Z,25.91
2022-08-07T12:33:56.728Z,26.02
2022-08-07T12:34:49.518Z,26.15
2022-08-07T12:35:43.623Z,26.35
2022-08-07T12:36:42.719Z,26.60
2022-08-07T12:38:09.600Z,26.99
2022-08-07T12:38:47.425Z,27.41
2022-08-07T12:39:50.431Z,27.29
2022-08-07T12:40:46.301Z,27.06
2022-08-07T12:41:49.489Z,27.18
2022-08-07T12:42:54.871Z,27.55
2022-08-07T12:44:02.942Z,27.63
2022-08-07T12:44:44.915Z,27.70
2022-08-07T12:45:42.698Z,28.04
2022-08-07T12:46:42.496Z,28.40
2022-08-07T12:47:42.654Z,28.49
2022-08-07T12:48:52.120Z,28.58
2022-08-07T12:49:50.944Z,28.66
2022-08-07T12:50:49.079Z,28.55
2022-08-07T12:51:50.952Z,28.66
2022-08-07T12:52:46.283Z,28.95
2022-08-07T12:54:24.320Z,29.14
2022-08-07T12:54:54.545Z,29.34
2022-08-07T12:56:02.303Z,29.55
2022-08-07T12:56:43.407Z,29.74
2022-08-07T12:58:01.163Z,29.97
2022-08-07T12:58:46.648Z,30.19
2022-08-07T12:59:54.288Z,30.35